sensor_id;sensor_type;location;lat;lon;timestamp;P1;P4;P2;P0;N10;N4;N25;N1;N05;TS
62702;SPS30;66022;50.448;18.122;2023-11-21T00:04:07;16.45;;14.67;;;;;;;
62702;SPS30;66022;50.448;18.122;2023-11-21T00:08:36;12.23;;11.81;;;;;;;
62702;SPS30;66022;50.448;18.122;2023-11-21T00:13:04;12.23;;11.81;;;;;;;
62702;SPS30;66022;50.448;18.122;2023-11-21T00:17:34;11.20;;10.34;;;;;;;
62702;SPS30;66022;50.448;18.122;2023-11-21T00:22:00;11.20;;10.34;;;;;;;
62702;SPS30;66022;50.448;18.122;2023-11-21T00:26:29;11.37;;10.57;;;;;;;
62702;SPS30;66022;50.448;18.122;2023-11-21T00:30:55;11.37;;10.57;;;;;;;
62702;SPS30;66022;50.448;18.122;2023-11-21T00:35:23;9.43;;8.90;;;;;;;
62702;SPS30;66022;50.448;18.122;2023-11-21T00:39:52;9.43;;8.90;;;;;;;
62702;SPS30;66022;50.448;18.122;2023-11-21T00:48:48;9.65;;9.50;;;;;;;
62702;SPS30;66022;50.448;18.122;2023-11-21T00:53:16;9.65;;9.50;;;;;;;
62702;SPS30;66022;50.448;18.122;2023-11-21T00:57:43;7.08;;6.90;;;;;;;
62702;SPS30;66022;50.448;18.122;2023-11-21T01:02:12;7.08;;6.90;;;;;;;
62702;SPS30;66022;50.448;18.122;2023-11-21T01:06:40;5.88;;5.83;;;;;;;
62702;SPS30;66022;50.448;18.122;2023-11-21T01:11:07;5.88;;5.83;;;;;;;
62702;SPS30;66022;50.448;18.122;2023-11-21T01:15:36;5.73;;5.41;;;;;;;
62702;SPS30;66022;50.448;18.122;2023-11-21T01:20:04;5.73;;5.41;;;;;;;
62702;SPS30;66022;50.448;18.122;2023-11-21T01:24:31;5.73;;5.41;;;;;;;
62702;SPS30;66022;50.448;18.122;2023-11-21T01:28:59;5.56;;5.28;;;;;;;
62702;SPS30;66022;50.448;18.122;2023-11-21T01:33:27;5.56;;5.28;;;;;;;
62702;SPS30;66022;50.448;18.122;2023-11-21T01:37:55;5.39;;4.87;;;;;;;
62702;SPS30;66022;50.448;18.122;2023-11-21T01:42:23;5.39;;4.87;;;;;;;
62702;SPS30;66022;50.448;18.122;2023-11-21T01:46:51;4.16;;4.16;;;;;;;
62702;SPS30;66022;50.448;18.122;2023-11-21T01:51:19;4.16;;4.16;;;;;;;
62702;SPS30;66022;50.448;18.122;2023-11-21T01:55:47;4.93;;4.80;;;;;;;
62702;SPS30;66022;50.448;18.122;2023-11-21T02:00:16;4.93;;4.80;;;;;;;
62702;SPS30;66022;50.448;18.122;2023-11-21T02:04:43;6.29;;5.60;;;;;;;
62702;SPS30;66022;50.448;18.122;2023-11-21T02:09:16;6.29;;5.60;;;;;;;
62702;SPS30;66022;50.448;18.122;2023-11-21T02:13:39;6.29;;5.60;;;;;;;
62702;SPS30;66022;50.448;18.122;2023-11-21T02:18:07;8.62;;7.49;;;;;;;
62702;SPS30;66022;50.448;18.122;2023-11-21T02:22:35;8.62;;7.49;;;;;;;
62702;SPS30;66022;50.448;18.122;2023-11-21T02:27:03;6.41;;6.41;;;;;;;
62702;SPS30;66022;50.448;18.122;2023-11-21T02:31:31;6.41;;6.41;;;;;;;
62702;SPS30;66022;50.448;18.122;2023-11-21T02:36:00;7.23;;6.96;;;;;;;
62702;SPS30;66022;50.448;18.122;2023-11-21T02:40:27;7.23;;6.96;;;;;;;
62702;SPS30;66022;50.448;18.122;2023-11-21T02:44:55;8.69;;7.62;;;;;;;
62702;SPS30;66022;50.448;18.122;2023-11-21T02:49:23;8.69;;7.62;;;;;;;
62702;SPS30;66022;50.448;18.122;2023-11-21T02:53:51;8.69;;7.62;;;;;;;
62702;SPS30;66022;50.448;18.122;2023-11-21T02:58:19;7.64;;7.11;;;;;;;
62702;SPS30;66022;50.448;18.122;2023-11-21T03:02:47;7.64;;7.11;;;;;;;
62702;SPS30;66022;50.448;18.122;2023-11-21T03:07:18;9.00;;8.84;;;;;;;
62702;SPS30;66022;50.448;18.122;2023-11-21T03:11:43;9.00;;8.84;;;;;;;
62702;SPS30;66022;50.448;18.122;2023-11-21T03:16:13;6.27;;5.70;;;;;;;
62702;SPS30;66022;50.448;18.122;2023-11-21T03:20:39;6.27;;5.70;;;;;;;
62702;SPS30;66022;50.448;18.122;2023-11-21T03:25:10;7.34;;6.69;;;;;;;
62702;SPS30;66022;50.448;18.122;2023-11-21T03:29:35;7.34;;6.69;;;;;;;
62702;SPS30;66022;50.448;18.122;2023-11-21T03:34:03;7.34;;6.69;;;;;;;
62702;SPS30;66022;50.448;18.122;2023-11-21T03:38:31;8.78;;8.59;;;;;;;
62702;SPS30;66022;50.448;18.122;2023-11-21T03:42:59;8.78;;8.59;;;;;;;
62702;SPS30;66022;50.448;18.122;2023-11-21T03:47:27;13.52;;13.52;;;;;;;
62702;SPS30;66022;50.448;18.122;2023-11-21T03:51:55;13.52;;13.52;;;;;;;
62702;SPS30;66022;50.448;18.122;2023-11-21T03:56:23;14.08;;13.50;;;;;;;
62702;SPS30;66022;50.448;18.122;2023-11-21T04:00:51;14.08;;13.50;;;;;;;
62702;SPS30;66022;50.448;18.122;2023-11-21T04:05:20;12.21;;11.61;;;;;;;
62702;SPS30;66022;50.448;18.122;2023-11-21T04:09:47;12.21;;11.61;;;;;;;
62702;SPS30;66022;50.448;18.122;2023-11-21T04:14:16;12.21;;11.61;;;;;;;
62702;SPS30;66022;50.448;18.122;2023-11-21T04:18:43;10.64;;10.64;;;;;;;
62702;SPS30;66022;50.448;18.122;2023-11-21T04:23:12;10.64;;10.64;;;;;;;
62702;SPS30;66022;50.448;18.122;2023-11-21T04:27:40;12.99;;12.65;;;;;;;
62702;SPS30;66022;50.448;18.122;2023-11-21T04:32:07;12.99;;12.65;;;;;;;
62702;SPS30;66022;50.448;18.122;2023-11-21T04:41:04;16.45;;15.76;;;;;;;
62702;SPS30;66022;50.448;18.122;2023-11-21T04:45:32;14.45;;14.15;;;;;;;
62702;SPS30;66022;50.448;18.122;2023-11-21T04:49:59;14.45;;14.15;;;;;;;
62702;SPS30;66022;50.448;18.122;2023-11-21T04:54:27;14.45;;14.15;;;;;;;
62702;SPS30;66022;50.448;18.122;2023-11-21T04:58:55;13.19;;12.60;;;;;;;
62702;SPS30;66022;50.448;18.122;2023-11-21T05:03:24;13.19;;12.60;;;;;;;
62702;SPS30;66022;50.448;18.122;2023-11-21T05:07:51;10.35;;9.76;;;;;;;
62702;SPS30;66022;50.448;18.122;2023-11-21T05:12:19;10.35;;9.76;;;;;;;
62702;SPS30;66022;50.448;18.122;2023-11-21T05:16:48;9.72;;9.72;;;;;;;
62702;SPS30;66022;50.448;18.122;2023-11-21T05:21:15;9.72;;9.72;;;;;;;
62702;SPS30;66022;50.448;18.122;2023-11-21T05:25:43;10.20;;9.86;;;;;;;
62702;SPS30;66022;50.448;18.122;2023-11-21T05:30:11;10.20;;9.86;;;;;;;
62702;SPS30;66022;50.448;18.122;2023-11-21T05:34:39;16.91;;16.25;;;;;;;
62702;SPS30;66022;50.448;18.122;2023-11-21T05:39:08;16.91;;16.25;;;;;;;
62702;SPS30;66022;50.448;18.122;2023-11-21T05:43:36;16.91;;16.25;;;;;;;
62702;SPS30;66022;50.448;18.122;2023-11-21T05:48:04;16.23;;16.20;;;;;;;
62702;SPS30;66022;50.448;18.122;2023-11-21T05:52:31;16.23;;16.20;;;;;;;
62702;SPS30;66022;50.448;18.122;2023-11-21T05:57:00;19.26;;17.91;;;;;;;
62702;SPS30;66022;50.448;18.122;2023-11-21T06:01:28;19.26;;17.91;;;;;;;
62702;SPS30;66022;50.448;18.122;2023-11-21T06:05:56;21.77;;20.65;;;;;;;
62702;SPS30;66022;50.448;18.122;2023-11-21T06:10:24;21.77;;20.65;;;;;;;
62702;SPS30;66022;50.448;18.122;2023-11-21T06:14:52;11.93;;11.93;;;;;;;
62702;SPS30;66022;50.448;18.122;2023-11-21T06:19:20;11.93;;11.93;;;;;;;
62702;SPS30;66022;50.448;18.122;2023-11-21T06:23:48;11.93;;11.93;;;;;;;
62702;SPS30;66022;50.448;18.122;2023-11-21T06:28:16;12.03;;11.09;;;;;;;
62702;SPS30;66022;50.448;18.122;2023-11-21T06:32:44;12.03;;11.09;;;;;;;
62702;SPS30;66022;50.448;18.122;2023-11-21T06:37:12;10.67;;10.49;;;;;;;
62702;SPS30;66022;50.448;18.122;2023-11-21T06:41:40;10.67;;10.49;;;;;;;
62702;SPS30;66022;50.448;18.122;2023-11-21T06:46:08;16.08;;16.08;;;;;;;
62702;SPS30;66022;50.448;18.122;2023-11-21T06:50:36;16.08;;16.08;;;;;;;
62702;SPS30;66022;50.448;18.122;2023-11-21T06:55:04;11.36;;11.36;;;;;;;
62702;SPS30;66022;50.448;18.122;2023-11-21T06:59:32;11.36;;11.36;;;;;;;
62702;SPS30;66022;50.448;18.122;2023-11-21T07:04:00;11.36;;11.36;;;;;;;
62702;SPS30;66022;50.448;18.122;2023-11-21T07:08:29;10.98;;10.49;;;;;;;
62702;SPS30;66022;50.448;18.122;2023-11-21T07:12:56;10.98;;10.49;;;;;;;
62702;SPS30;66022;50.448;18.122;2023-11-21T07:17:24;13.58;;12.15;;;;;;;
62702;SPS30;66022;50.448;18.122;2023-11-21T07:21:52;13.58;;12.15;;;;;;;
62702;SPS30;66022;50.448;18.122;2023-11-21T07:26:20;9.55;;9.55;;;;;;;
62702;SPS30;66022;50.448;18.122;2023-11-21T07:30:48;9.55;;9.55;;;;;;;
62702;SPS30;66022;50.448;18.122;2023-11-21T07:35:16;9.77;;9.59;;;;;;;
62702;SPS30;66022;50.448;18.122;2023-11-21T07:39:44;9.77;;9.59;;;;;;;
62702;SPS30;66022;50.448;18.122;2023-11-21T07:44:12;9.77;;9.59;;;;;;;
62702;SPS30;66022;50.448;18.122;2023-11-21T07:48:40;11.08;;10.47;;;;;;;
62702;SPS30;66022;50.448;18.122;2023-11-21T07:53:08;11.08;;10.47;;;;;;;
62702;SPS30;66022;50.448;18.122;2023-11-21T07:57:36;10.16;;10.16;;;;;;;
62702;SPS30;66022;50.448;18.122;2023-11-21T08:02:04;10.16;;10.16;;;;;;;
62702;SPS30;66022;50.448;18.122;2023-11-21T08:06:32;13.46;;12.93;;;;;;;
62702;SPS30;66022;50.448;18.122;2023-11-21T08:11:00;13.46;;12.93;;;;;;;
62702;SPS30;66022;50.448;18.122;2023-11-21T08:15:28;16.64;;14.80;;;;;;;
62702;SPS30;66022;50.448;18.122;2023-11-21T08:19:56;16.64;;14.80;;;;;;;
62702;SPS30;66022;50.448;18.122;2023-11-21T08:24:24;16.64;;14.80;;;;;;;
62702;SPS30;66022;50.448;18.122;2023-11-21T08:28:52;9.53;;9.24;;;;;;;
62702;SPS30;66022;50.448;18.122;2023-11-21T08:33:20;9.53;;9.24;;;;;;;
62702;SPS30;66022;50.448;18.122;2023-11-21T08:37:51;10.48;;9.21;;;;;;;
62702;SPS30;66022;50.448;18.122;2023-11-21T08:42:16;10.48;;9.21;;;;;;;
62702;SPS30;66022;50.448;18.122;2023-11-21T08:46:44;8.42;;7.87;;;;;;;
62702;SPS30;66022;50.448;18.122;2023-11-21T08:51:13;8.42;;7.87;;;;;;;
62702;SPS30;66022;50.448;18.122;2023-11-21T08:55:41;5.63;;5.63;;;;;;;
62702;SPS30;66022;50.448;18.122;2023-11-21T09:00:09;5.63;;5.63;;;;;;;
62702;SPS30;66022;50.448;18.122;2023-11-21T09:04:37;5.63;;5.63;;;;;;;
62702;SPS30;66022;50.448;18.122;2023-11-21T09:09:05;4.69;;4.69;;;;;;;
62702;SPS30;66022;50.448;18.122;2023-11-21T09:13:33;4.69;;4.69;;;;;;;
62702;SPS30;66022;50.448;18.122;2023-11-21T09:18:01;3.98;;3.54;;;;;;;
62702;SPS30;66022;50.448;18.122;2023-11-21T09:22:31;3.98;;3.54;;;;;;;
62702;SPS30;66022;50.448;18.122;2023-11-21T09:26:57;2.43;;2.43;;;;;;;
62702;SPS30;66022;50.448;18.122;2023-11-21T09:31:25;2.43;;2.43;;;;;;;
62702;SPS30;66022;50.448;18.122;2023-11-21T09:35:53;2.79;;2.79;;;;;;;
62702;SPS30;66022;50.448;18.122;2023-11-21T09:40:21;2.79;;2.79;;;;;;;
62702;SPS30;66022;50.448;18.122;2023-11-21T09:44:54;3.61;;3.50;;;;;;;
62702;SPS30;66022;50.448;18.122;2023-11-21T09:49:18;3.61;;3.50;;;;;;;
62702;SPS30;66022;50.448;18.122;2023-11-21T09:53:45;3.61;;3.50;;;;;;;
62702;SPS30;66022;50.448;18.122;2023-11-21T09:58:13;3.36;;3.16;;;;;;;
62702;SPS30;66022;50.448;18.122;2023-11-21T10:02:41;3.36;;3.16;;;;;;;
62702;SPS30;66022;50.448;18.122;2023-11-21T10:07:09;3.79;;3.49;;;;;;;
62702;SPS30;66022;50.448;18.122;2023-11-21T10:11:39;3.79;;3.49;;;;;;;
62702;SPS30;66022;50.448;18.122;2023-11-21T10:16:05;2.67;;2.67;;;;;;;
62702;SPS30;66022;50.448;18.122;2023-11-21T10:20:33;2.67;;2.67;;;;;;;
62702;SPS30;66022;50.448;18.122;2023-11-21T10:25:01;2.61;;2.61;;;;;;;
62702;SPS30;66022;50.448;18.122;2023-11-21T10:29:29;2.61;;2.61;;;;;;;
62702;SPS30;66022;50.448;18.122;2023-11-21T10:38:25;5.10;;4.18;;;;;;;
62702;SPS30;66022;50.448;18.122;2023-11-21T10:42:53;5.10;;4.18;;;;;;;
62702;SPS30;66022;50.448;18.122;2023-11-21T10:47:21;2.97;;2.97;;;;;;;
62702;SPS30;66022;50.448;18.122;2023-11-21T10:51:49;2.97;;2.97;;;;;;;
62702;SPS30;66022;50.448;18.122;2023-11-21T10:56:17;2.09;;2.09;;;;;;;
62702;SPS30;66022;50.448;18.122;2023-11-21T11:00:45;2.09;;2.09;;;;;;;
62702;SPS30;66022;50.448;18.122;2023-11-21T11:05:13;2.27;;2.06;;;;;;;
62702;SPS30;66022;50.448;18.122;2023-11-21T11:09:41;2.27;;2.06;;;;;;;
62702;SPS30;66022;50.448;18.122;2023-11-21T11:14:10;2.27;;2.06;;;;;;;
62702;SPS30;66022;50.448;18.122;2023-11-21T11:18:37;3.46;;2.97;;;;;;;
62702;SPS30;66022;50.448;18.122;2023-11-21T11:36:34;2.41;;2.41;;;;;;;
62702;SPS30;66022;50.448;18.122;2023-11-21T11:40:57;2.41;;2.41;;;;;;;
62702;SPS30;66022;50.448;18.122;2023-11-21T11:45:25;3.29;;2.97;;;;;;;
62702;SPS30;66022;50.448;18.122;2023-11-21T11:54:34;3.29;;2.97;;;;;;;
62702;SPS30;66022;50.448;18.122;2023-11-21T11:58:49;2.57;;2.57;;;;;;;
62702;SPS30;66022;50.448;18.122;2023-11-21T12:03:17;2.57;;2.57;;;;;;;
62702;SPS30;66022;50.448;18.122;2023-11-21T12:07:45;3.79;;3.53;;;;;;;
62702;SPS30;66022;50.448;18.122;2023-11-21T12:12:13;3.79;;3.53;;;;;;;
62702;SPS30;66022;50.448;18.122;2023-11-21T12:16:41;2.86;;2.86;;;;;;;
62702;SPS30;66022;50.448;18.122;2023-11-21T12:25:37;6.22;;5.13;;;;;;;
62702;SPS30;66022;50.448;18.122;2023-11-21T12:30:05;6.22;;5.13;;;;;;;
62702;SPS30;66022;50.448;18.122;2023-11-21T12:34:33;6.22;;5.13;;;;;;;
62702;SPS30;66022;50.448;18.122;2023-11-21T12:39:01;5.41;;5.08;;;;;;;
62702;SPS30;66022;50.448;18.122;2023-11-21T12:43:29;5.41;;5.08;;;;;;;
62702;SPS30;66022;50.448;18.122;2023-11-21T12:47:57;6.11;;5.58;;;;;;;
62702;SPS30;66022;50.448;18.122;2023-11-21T12:52:25;6.11;;5.58;;;;;;;
62702;SPS30;66022;50.448;18.122;2023-11-21T12:56:53;5.68;;5.35;;;;;;;
62702;SPS30;66022;50.448;18.122;2023-11-21T13:01:21;5.68;;5.35;;;;;;;
62702;SPS30;66022;50.448;18.122;2023-11-21T13:05:50;7.53;;6.78;;;;;;;
62702;SPS30;66022;50.448;18.122;2023-11-21T13:10:17;7.53;;6.78;;;;;;;
62702;SPS30;66022;50.448;18.122;2023-11-21T13:14:45;7.04;;6.33;;;;;;;
62702;SPS30;66022;50.448;18.122;2023-11-21T13:19:13;7.04;;6.33;;;;;;;
62702;SPS30;66022;50.448;18.122;2023-11-21T13:23:41;7.04;;6.33;;;;;;;
62702;SPS30;66022;50.448;18.122;2023-11-21T13:28:09;7.97;;7.76;;;;;;;
62702;SPS30;66022;50.448;18.122;2023-11-21T13:32:37;7.97;;7.76;;;;;;;
62702;SPS30;66022;50.448;18.122;2023-11-21T13:37:05;10.02;;9.40;;;;;;;
62702;SPS30;66022;50.448;18.122;2023-11-21T13:41:33;10.02;;9.40;;;;;;;
62702;SPS30;66022;50.448;18.122;2023-11-21T13:46:01;12.59;;11.69;;;;;;;
62702;SPS30;66022;50.448;18.122;2023-11-21T13:50:29;12.59;;11.69;;;;;;;
62702;SPS30;66022;50.448;18.122;2023-11-21T13:54:57;16.77;;15.72;;;;;;;
62702;SPS30;66022;50.448;18.122;2023-11-21T13:59:25;16.77;;15.72;;;;;;;
62702;SPS30;66022;50.448;18.122;2023-11-21T14:03:53;16.77;;15.72;;;;;;;
62702;SPS30;66022;50.448;18.122;2023-11-21T14:08:21;16.61;;15.81;;;;;;;
62702;SPS30;66022;50.448;18.122;2023-11-21T14:12:49;16.61;;15.81;;;;;;;
62702;SPS30;66022;50.448;18.122;2023-11-21T14:17:17;16.85;;15.77;;;;;;;
62702;SPS30;66022;50.448;18.122;2023-11-21T14:21:52;16.85;;15.77;;;;;;;
62702;SPS30;66022;50.448;18.122;2023-11-21T14:26:13;11.01;;10.84;;;;;;;
62702;SPS30;66022;50.448;18.122;2023-11-21T14:30:41;11.01;;10.84;;;;;;;
62702;SPS30;66022;50.448;18.122;2023-11-21T14:35:09;14.07;;13.37;;;;;;;
62702;SPS30;66022;50.448;18.122;2023-11-21T14:39:37;14.07;;13.37;;;;;;;
62702;SPS30;66022;50.448;18.122;2023-11-21T14:44:05;14.07;;13.37;;;;;;;
62702;SPS30;66022;50.448;18.122;2023-11-21T14:48:33;46.53;;40.87;;;;;;;
62702;SPS30;66022;50.448;18.122;2023-11-21T14:53:03;46.53;;40.87;;;;;;;
62702;SPS30;66022;50.448;18.122;2023-11-21T14:57:29;24.63;;22.70;;;;;;;
62702;SPS30;66022;50.448;18.122;2023-11-21T15:01:57;24.63;;22.70;;;;;;;
62702;SPS30;66022;50.448;18.122;2023-11-21T15:06:25;31.73;;29.20;;;;;;;
62702;SPS30;66022;50.448;18.122;2023-11-21T15:10:53;31.73;;29.20;;;;;;;
62702;SPS30;66022;50.448;18.122;2023-11-21T15:15:21;41.58;;35.12;;;;;;;
62702;SPS30;66022;50.448;18.122;2023-11-21T15:19:49;41.58;;35.12;;;;;;;
62702;SPS30;66022;50.448;18.122;2023-11-21T15:24:17;41.58;;35.12;;;;;;;
62702;SPS30;66022;50.448;18.122;2023-11-21T15:28:45;27.46;;25.50;;;;;;;
62702;SPS30;66022;50.448;18.122;2023-11-21T15:33:13;27.46;;25.50;;;;;;;
62702;SPS30;66022;50.448;18.122;2023-11-21T15:37:41;30.53;;28.86;;;;;;;
62702;SPS30;66022;50.448;18.122;2023-11-21T15:42:09;30.53;;28.86;;;;;;;
62702;SPS30;66022;50.448;18.122;2023-11-21T15:46:37;42.15;;36.62;;;;;;;
62702;SPS30;66022;50.448;18.122;2023-11-21T15:51:05;42.15;;36.62;;;;;;;
62702;SPS30;66022;50.448;18.122;2023-11-21T15:55:37;32.26;;29.52;;;;;;;
62702;SPS30;66022;50.448;18.122;2023-11-21T16:00:01;32.26;;29.52;;;;;;;
62702;SPS30;66022;50.448;18.122;2023-11-21T16:04:29;32.26;;29.52;;;;;;;
62702;SPS30;66022;50.448;18.122;2023-11-21T16:07:28;24.92;;23.12;;;;;;;
62702;SPS30;66022;50.448;18.122;2023-11-21T16:11:42;24.92;;23.12;;;;;;;
62702;SPS30;66022;50.448;18.122;2023-11-21T16:15:56;24.92;;23.12;;;;;;;
62702;SPS30;66022;50.448;18.122;2023-11-21T16:20:10;25.05;;23.06;;;;;;;
62702;SPS30;66022;50.448;18.122;2023-11-21T16:24:25;25.05;;23.06;;;;;;;
62702;SPS30;66022;50.448;18.122;2023-11-21T16:28:38;20.67;;18.73;;;;;;;
62702;SPS30;66022;50.448;18.122;2023-11-21T16:32:52;20.67;;18.73;;;;;;;
62702;SPS30;66022;50.448;18.122;2023-11-21T16:37:06;14.96;;14.61;;;;;;;
62702;SPS30;66022;50.448;18.122;2023-11-21T16:41:20;14.96;;14.61;;;;;;;
62702;SPS30;66022;50.448;18.122;2023-11-21T16:45:36;14.96;;14.61;;;;;;;
62702;SPS30;66022;50.448;18.122;2023-11-21T16:49:48;14.48;;13.41;;;;;;;
62702;SPS30;66022;50.448;18.122;2023-11-21T16:54:02;14.48;;13.41;;;;;;;
62702;SPS30;66022;50.448;18.122;2023-11-21T16:58:16;12.15;;12.01;;;;;;;
62702;SPS30;66022;50.448;18.122;2023-11-21T17:02:30;12.15;;12.01;;;;;;;
62702;SPS30;66022;50.448;18.122;2023-11-21T17:06:44;22.30;;20.23;;;;;;;
62702;SPS30;66022;50.448;18.122;2023-11-21T17:10:58;22.30;;20.23;;;;;;;
62702;SPS30;66022;50.448;18.122;2023-11-21T17:15:12;22.30;;20.23;;;;;;;
62702;SPS30;66022;50.448;18.122;2023-11-21T17:19:29;17.80;;16.65;;;;;;;
62702;SPS30;66022;50.448;18.122;2023-11-21T17:23:41;17.80;;16.65;;;;;;;
62702;SPS30;66022;50.448;18.122;2023-11-21T17:27:55;13.45;;13.08;;;;;;;
62702;SPS30;66022;50.448;18.122;2023-11-21T17:32:08;13.45;;13.08;;;;;;;
62702;SPS30;66022;50.448;18.122;2023-11-21T17:36:22;13.09;;12.77;;;;;;;
62702;SPS30;66022;50.448;18.122;2023-11-21T17:40:36;13.09;;12.77;;;;;;;
62702;SPS30;66022;50.448;18.122;2023-11-21T17:44:50;13.09;;12.77;;;;;;;
62702;SPS30;66022;50.448;18.122;2023-11-21T17:49:04;11.88;;11.84;;;;;;;
62702;SPS30;66022;50.448;18.122;2023-11-21T17:53:18;11.88;;11.84;;;;;;;
62702;SPS30;66022;50.448;18.122;2023-11-21T17:57:34;13.04;;12.62;;;;;;;
62702;SPS30;66022;50.448;18.122;2023-11-21T18:01:46;13.04;;12.62;;;;;;;
62702;SPS30;66022;50.448;18.122;2023-11-21T18:06:00;13.04;;12.62;;;;;;;
62702;SPS30;66022;50.448;18.122;2023-11-21T18:10:14;12.54;;11.95;;;;;;;
62702;SPS30;66022;50.448;18.122;2023-11-21T18:14:28;12.54;;11.95;;;;;;;
62702;SPS30;66022;50.448;18.122;2023-11-21T18:18:42;15.26;;15.13;;;;;;;
62702;SPS30;66022;50.448;18.122;2023-11-21T18:22:56;15.26;;15.13;;;;;;;
62702;SPS30;66022;50.448;18.122;2023-11-21T18:27:10;14.04;;12.62;;;;;;;
62702;SPS30;66022;50.448;18.122;2023-11-21T18:31:24;14.04;;12.62;;;;;;;
62702;SPS30;66022;50.448;18.122;2023-11-21T18:35:38;14.04;;12.62;;;;;;;
62702;SPS30;66022;50.448;18.122;2023-11-21T18:39:52;14.88;;14.16;;;;;;;
62702;SPS30;66022;50.448;18.122;2023-11-21T18:44:06;14.88;;14.16;;;;;;;
62702;SPS30;66022;50.448;18.122;2023-11-21T18:48:20;14.61;;13.14;;;;;;;
62702;SPS30;66022;50.448;18.122;2023-11-21T18:52:34;14.61;;13.14;;;;;;;
62702;SPS30;66022;50.448;18.122;2023-11-21T18:56:50;14.73;;13.76;;;;;;;
62702;SPS30;66022;50.448;18.122;2023-11-21T19:01:02;14.73;;13.76;;;;;;;
62702;SPS30;66022;50.448;18.122;2023-11-21T19:05:16;14.73;;13.76;;;;;;;
62702;SPS30;66022;50.448;18.122;2023-11-21T19:09:30;18.02;;16.94;;;;;;;
62702;SPS30;66022;50.448;18.122;2023-11-21T19:13:44;18.02;;16.94;;;;;;;
62702;SPS30;66022;50.448;18.122;2023-11-21T19:18:06;16.53;;15.51;;;;;;;
62702;SPS30;66022;50.448;18.122;2023-11-21T19:26:26;16.59;;15.99;;;;;;;
62702;SPS30;66022;50.448;18.122;2023-11-21T19:30:40;16.59;;15.99;;;;;;;
62702;SPS30;66022;50.448;18.122;2023-11-21T19:34:55;16.59;;15.99;;;;;;;
62702;SPS30;66022;50.448;18.122;2023-11-21T19:39:11;26.63;;23.23;;;;;;;
62702;SPS30;66022;50.448;18.122;2023-11-21T19:43:22;26.63;;23.23;;;;;;;
62702;SPS30;66022;50.448;18.122;2023-11-21T19:47:36;23.18;;21.53;;;;;;;
62702;SPS30;66022;50.448;18.122;2023-11-21T19:51:55;23.18;;21.53;;;;;;;
62702;SPS30;66022;50.448;18.122;2023-11-21T19:56:04;17.51;;16.70;;;;;;;
62702;SPS30;66022;50.448;18.122;2023-11-21T20:00:18;17.51;;16.70;;;;;;;
62702;SPS30;66022;50.448;18.122;2023-11-21T20:04:32;17.51;;16.70;;;;;;;
62702;SPS30;66022;50.448;18.122;2023-11-21T20:08:46;19.15;;18.75;;;;;;;
62702;SPS30;66022;50.448;18.122;2023-11-21T20:13:00;19.15;;18.75;;;;;;;
62702;SPS30;66022;50.448;18.122;2023-11-21T20:17:14;22.54;;21.29;;;;;;;
62702;SPS30;66022;50.448;18.122;2023-11-21T20:21:29;22.54;;21.29;;;;;;;
62702;SPS30;66022;50.448;18.122;2023-11-21T20:25:45;22.54;;21.29;;;;;;;
62702;SPS30;66022;50.448;18.122;2023-11-21T20:29:56;25.33;;24.30;;;;;;;
62702;SPS30;66022;50.448;18.122;2023-11-21T20:34:10;25.33;;24.30;;;;;;;
62702;SPS30;66022;50.448;18.122;2023-11-21T20:38:24;25.69;;23.91;;;;;;;
62702;SPS30;66022;50.448;18.122;2023-11-21T20:42:38;25.69;;23.91;;;;;;;
62702;SPS30;66022;50.448;18.122;2023-11-21T20:46:52;24.47;;23.63;;;;;;;
62702;SPS30;66022;50.448;18.122;2023-11-21T20:51:11;24.47;;23.63;;;;;;;
62702;SPS30;66022;50.448;18.122;2023-11-21T20:55:21;24.47;;23.63;;;;;;;
62702;SPS30;66022;50.448;18.122;2023-11-21T20:59:34;23.47;;22.82;;;;;;;
62702;SPS30;66022;50.448;18.122;2023-11-21T21:03:48;23.47;;22.82;;;;;;;
62702;SPS30;66022;50.448;18.122;2023-11-21T21:08:02;24.88;;23.89;;;;;;;
62702;SPS30;66022;50.448;18.122;2023-11-21T21:12:16;24.88;;23.89;;;;;;;
62702;SPS30;66022;50.448;18.122;2023-11-21T21:16:30;25.41;;22.75;;;;;;;
62702;SPS30;66022;50.448;18.122;2023-11-21T21:20:44;25.41;;22.75;;;;;;;
62702;SPS30;66022;50.448;18.122;2023-11-21T21:24:58;25.41;;22.75;;;;;;;
62702;SPS30;66022;50.448;18.122;2023-11-21T21:29:12;20.35;;19.90;;;;;;;
62702;SPS30;66022;50.448;18.122;2023-11-21T21:33:27;20.35;;19.90;;;;;;;
62702;SPS30;66022;50.448;18.122;2023-11-21T21:37:41;20.19;;19.79;;;;;;;
62702;SPS30;66022;50.448;18.122;2023-11-21T21:41:54;20.19;;19.79;;;;;;;
62702;SPS30;66022;50.448;18.122;2023-11-21T21:46:08;27.02;;23.60;;;;;;;
62702;SPS30;66022;50.448;18.122;2023-11-21T21:50:22;27.02;;23.60;;;;;;;
62702;SPS30;66022;50.448;18.122;2023-11-21T21:54:36;27.02;;23.60;;;;;;;
62702;SPS30;66022;50.448;18.122;2023-11-21T21:58:50;27.81;;25.56;;;;;;;
62702;SPS30;66022;50.448;18.122;2023-11-21T22:03:05;27.81;;25.56;;;;;;;
62702;SPS30;66022;50.448;18.122;2023-11-21T22:07:18;27.62;;24.37;;;;;;;
62702;SPS30;66022;50.448;18.122;2023-11-21T22:11:32;27.62;;24.37;;;;;;;
62702;SPS30;66022;50.448;18.122;2023-11-21T22:15:46;27.62;;24.37;;;;;;;
62702;SPS30;66022;50.448;18.122;2023-11-21T22:20:00;22.06;;21.60;;;;;;;
62702;SPS30;66022;50.448;18.122;2023-11-21T22:24:17;22.06;;21.60;;;;;;;
62702;SPS30;66022;50.448;18.122;2023-11-21T22:28:29;22.20;;21.50;;;;;;;
62702;SPS30;66022;50.448;18.122;2023-11-21T22:32:42;22.20;;21.50;;;;;;;
62702;SPS30;66022;50.448;18.122;2023-11-21T22:36:56;20.45;;19.84;;;;;;;
62702;SPS30;66022;50.448;18.122;2023-11-21T22:41:10;20.45;;19.84;;;;;;;
62702;SPS30;66022;50.448;18.122;2023-11-21T22:45:24;20.45;;19.84;;;;;;;
62702;SPS30;66022;50.448;18.122;2023-11-21T22:49:38;21.84;;20.38;;;;;;;
62702;SPS30;66022;50.448;18.122;2023-11-21T22:53:52;21.84;;20.38;;;;;;;
62702;SPS30;66022;50.448;18.122;2023-11-21T22:58:06;25.82;;23.27;;;;;;;
62702;SPS30;66022;50.448;18.122;2023-11-21T23:02:20;25.82;;23.27;;;;;;;
62702;SPS30;66022;50.448;18.122;2023-11-21T23:06:34;27.40;;23.63;;;;;;;
62702;SPS30;66022;50.448;18.122;2023-11-21T23:10:48;27.40;;23.63;;;;;;;
62702;SPS30;66022;50.448;18.122;2023-11-21T23:15:02;27.40;;23.63;;;;;;;
62702;SPS30;66022;50.448;18.122;2023-11-21T23:19:16;25.52;;24.40;;;;;;;
62702;SPS30;66022;50.448;18.122;2023-11-21T23:23:30;25.52;;24.40;;;;;;;
62702;SPS30;66022;50.448;18.122;2023-11-21T23:27:44;24.50;;23.70;;;;;;;
62702;SPS30;66022;50.448;18.122;2023-11-21T23:31:58;24.50;;23.70;;;;;;;
62702;SPS30;66022;50.448;18.122;2023-11-21T23:36:12;26.66;;24.61;;;;;;;
62702;SPS30;66022;50.448;18.122;2023-11-21T23:40:26;26.66;;24.61;;;;;;;
62702;SPS30;66022;50.448;18.122;2023-11-21T23:44:40;26.66;;24.61;;;;;;;
62702;SPS30;66022;50.448;18.122;2023-11-21T23:48:54;27.28;;24.98;;;;;;;
62702;SPS30;66022;50.448;18.122;2023-11-21T23:53:09;27.28;;24.98;;;;;;;
62702;SPS30;66022;50.448;18.122;2023-11-21T23:57:22;27.88;;25.77;;;;;;;
